createdAt,value
2022-08-23T00:01:25.158Z,20.13
2022-08-23T00:03:55.362Z,20.18
2022-08-23T00:06:25.074Z,20.19
2022-08-23T00:08:54.284Z,20.26
2022-08-23T00:11:27.397Z,20.29
2022-08-23T00:13:55.522Z,20.29
2022-08-23T00:16:25.101Z,20.19
2022-08-23T00:18:53.121Z,20.18
2022-08-23T00:21:21.048Z,20.17
2022-08-23T00:23:48.854Z,20.24
2022-08-23T00:26:16.397Z,20.11
2022-08-23T00:28:44.183Z,20.12
2022-08-23T00:31:25.132Z,20.02
2022-08-23T00:33:54.508Z,19.94
2022-08-23T00:36:23.406Z,19.93
2022-08-23T00:38:51.219Z,19.87
2022-08-23T00:41:21.231Z,19.76
2022-08-23T00:44:06.737Z,19.77
2022-08-23T00:47:02.586Z,19.77
2022-08-23T00:49:36.263Z,19.54
2022-08-23T00:52:12.080Z,19.44
2022-08-23T00:54:42.985Z,19.49
2022-08-23T00:57:14.325Z,19.28
2022-08-23T00:59:43.007Z,19.12
2022-08-23T01:02:13.625Z,19.10
2022-08-23T01:04:49.435Z,19.03
2022-08-23T01:07:27.350Z,18.95
2022-08-23T01:10:01.059Z,18.93
2022-08-23T01:12:35.864Z,18.89
2022-08-23T01:15:07.876Z,18.86
2022-08-23T01:17:41.577Z,18.76
2022-08-23T01:20:15.897Z,18.82
2022-08-23T01:22:58.450Z,18.82
2022-08-23T01:25:30.134Z,18.71
2022-08-23T01:27:59.424Z,18.67
2022-08-23T01:30:31.442Z,18.65
2022-08-23T01:33:03.267Z,18.62
2022-08-23T01:35:37.481Z,18.50
2022-08-23T01:38:05.986Z,18.66
2022-08-23T01:40:35.823Z,18.63
2022-08-23T01:43:04.106Z,18.48
2022-08-23T01:45:33.607Z,18.35
2022-08-23T01:48:02.664Z,18.30
2022-08-23T01:50:30.960Z,18.31
2022-08-23T01:52:59.599Z,18.27
2022-08-23T01:55:28.066Z,18.22
2022-08-23T01:58:02.065Z,18.23
2022-08-23T02:00:32.883Z,18.17
2022-08-23T02:03:02.584Z,18.20
2022-08-23T02:05:30.597Z,18.14
2022-08-23T02:08:19.116Z,18.11
2022-08-23T02:10:46.922Z,18.15
2022-08-23T02:13:15.830Z,17.99
2022-08-23T02:15:44.844Z,17.94
2022-08-23T02:18:13.459Z,17.93
2022-08-23T02:20:45.363Z,17.94
2022-08-23T02:23:13.667Z,17.92
2022-08-23T02:25:41.686Z,17.90
2022-08-23T02:28:09.997Z,17.89
2022-08-23T02:30:40.020Z,17.85
2022-08-23T02:33:08.317Z,17.79
2022-08-23T02:38:21.595Z,17.83
2022-08-23T02:40:52.987Z,17.75
2022-08-23T02:43:28.715Z,17.73
2022-08-23T02:45:57.923Z,17.68
2022-08-23T02:48:25.533Z,17.60
2022-08-23T02:50:53.446Z,17.54
2022-08-23T02:53:21.046Z,17.48
2022-08-23T02:55:49.165Z,17.46
2022-08-23T02:58:16.978Z,17.38
2022-08-23T03:00:47.796Z,17.32
2022-08-23T03:03:18.316Z,17.27
2022-08-23T03:05:46.612Z,17.22
2022-08-23T03:08:15.623Z,17.18
2022-08-23T03:10:44.436Z,17.15
2022-08-23T03:13:12.749Z,17.16
2022-08-23T03:15:41.057Z,17.16
2022-08-23T03:18:11.120Z,17.19
2022-08-23T03:20:41.472Z,17.11
2022-08-23T03:23:09.297Z,17.15
2022-08-23T03:25:37.791Z,17.08
2022-08-23T03:28:09.315Z,17.11
2022-08-23T03:30:37.471Z,17.04
2022-08-23T03:33:06.082Z,17.05
2022-08-23T03:35:33.795Z,17.00
2022-08-23T03:38:03.085Z,16.98
2022-08-23T03:40:30.914Z,16.94
2022-08-23T03:42:58.755Z,16.82
2022-08-23T03:45:26.338Z,16.72
2022-08-23T03:47:54.148Z,16.72
2022-08-23T03:50:22.262Z,16.84
2022-08-23T03:52:50.270Z,16.74
2022-08-23T03:55:19.881Z,16.76
2022-08-23T03:57:48.994Z,16.72
2022-08-23T04:00:20.382Z,16.65
2022-08-23T04:02:48.540Z,16.63
2022-08-23T04:05:16.134Z,16.65
2022-08-23T04:07:43.938Z,16.72
2022-08-23T04:10:14.962Z,16.74
2022-08-23T04:12:44.562Z,16.73
2022-08-23T04:15:13.493Z,16.80
2022-08-23T04:17:42.580Z,16.79
2022-08-23T04:20:11.094Z,16.64
2022-08-23T04:22:38.905Z,16.69
2022-08-23T04:25:14.097Z,16.60
2022-08-23T04:27:56.628Z,16.55
2022-08-23T04:30:24.366Z,16.49
2022-08-23T04:32:53.454Z,16.46
2022-08-23T04:35:22.377Z,16.46
2022-08-23T04:37:50.077Z,16.37
2022-08-23T04:40:36.086Z,16.35
2022-08-23T04:43:05.295Z,16.37
2022-08-23T04:45:33.509Z,16.52
2022-08-23T04:48:01.509Z,16.59
2022-08-23T04:50:29.429Z,16.69
2022-08-23T04:52:57.341Z,16.59
2022-08-23T04:55:24.958Z,16.51
2022-08-23T04:57:52.665Z,16.52
2022-08-23T05:00:22.480Z,16.52
2022-08-23T05:02:55.585Z,16.54
2022-08-23T05:05:23.528Z,16.60
2022-08-23T05:07:51.429Z,16.61
2022-08-23T05:10:18.960Z,16.67
2022-08-23T05:12:47.130Z,16.68
2022-08-23T05:15:15.020Z,16.82
2022-08-23T05:17:43.949Z,16.83
2022-08-23T05:20:12.161Z,16.88
2022-08-23T05:22:42.582Z,16.96
2022-08-23T05:25:11.101Z,17.07
2022-08-23T05:27:39.592Z,17.15
2022-08-23T05:30:08.428Z,17.24
2022-08-23T05:32:44.534Z,17.37
2022-08-23T05:35:12.330Z,17.46
2022-08-23T05:37:40.137Z,17.55
2022-08-23T05:40:08.325Z,17.67
2022-08-23T05:42:36.059Z,17.72
2022-08-23T05:45:06.237Z,17.84
2022-08-23T05:47:34.493Z,17.96
2022-08-23T05:50:07.034Z,18.12
2022-08-23T05:52:35.207Z,18.23
2022-08-23T05:55:03.020Z,18.39
2022-08-23T05:57:30.634Z,18.56
2022-08-23T05:59:58.540Z,18.72
2022-08-23T06:02:26.145Z,18.85
2022-08-23T06:04:57.245Z,19.03
2022-08-23T06:07:26.695Z,19.21
2022-08-23T06:09:55.494Z,19.35
2022-08-23T06:12:23.293Z,19.49
2022-08-23T06:14:51.120Z,19.58
2022-08-23T06:17:20.472Z,19.69
2022-08-23T06:19:48.023Z,19.79
2022-08-23T06:22:15.795Z,19.89
2022-08-23T06:24:45.057Z,20.05
2022-08-23T06:27:13.367Z,20.19
2022-08-23T06:29:41.466Z,20.28
2022-08-23T06:32:09.316Z,20.39
2022-08-23T06:34:38.897Z,20.44
2022-08-23T06:37:11.775Z,20.59
2022-08-23T06:39:40.216Z,20.69
2022-08-23T06:42:34.895Z,20.81
2022-08-23T06:44:59.335Z,20.95
2022-08-23T06:47:27.144Z,20.98
2022-08-23T06:49:57.727Z,21.08
2022-08-23T06:52:27.277Z,21.25
2022-08-23T06:54:55.178Z,21.35
2022-08-23T06:57:24.227Z,21.49
2022-08-23T06:59:52.012Z,21.66
2022-08-23T07:02:19.706Z,21.76
2022-08-23T07:04:53.741Z,21.95
2022-08-23T07:07:21.441Z,22.12
2022-08-23T07:09:49.056Z,22.23
2022-08-23T07:12:17.069Z,22.33
2022-08-23T07:14:46.274Z,22.46
2022-08-23T07:17:14.507Z,22.57
2022-08-23T07:19:44.020Z,22.69
2022-08-23T07:22:12.110Z,22.95
2022-08-23T07:24:39.833Z,22.97
2022-08-23T07:27:09.530Z,23.05
2022-08-23T07:29:39.538Z,23.23
2022-08-23T07:32:09.770Z,23.42
2022-08-23T07:34:37.760Z,23.71
2022-08-23T07:37:15.211Z,24.47
2022-08-23T07:39:43.951Z,25.78
2022-08-23T07:42:22.874Z,26.88
2022-08-23T07:44:52.710Z,27.99
2022-08-23T07:47:23.310Z,29.47
2022-08-23T07:49:53.529Z,31.13
2022-08-23T07:52:21.942Z,31.52
2022-08-23T07:54:49.777Z,33.13
2022-08-23T07:57:18.068Z,33.63
2022-08-23T07:59:45.974Z,35.27
2022-08-23T08:02:13.882Z,36.50
2022-08-23T08:04:44.000Z,36.78
2022-08-23T08:07:19.513Z,36.75
2022-08-23T08:09:48.514Z,36.80
2022-08-23T08:12:16.243Z,36.33
2022-08-23T08:14:44.132Z,37.37
2022-08-23T08:17:12.462Z,37.32
2022-08-23T08:19:41.554Z,36.80
2022-08-23T08:22:13.075Z,38.20
2022-08-23T08:24:40.990Z,38.83
2022-08-23T08:27:09.241Z,37.56
2022-08-23T08:29:37.015Z,38.20
2022-08-23T08:32:05.446Z,37.62
2022-08-23T08:34:33.225Z,38.37
2022-08-23T08:37:01.133Z,38.08
2022-08-23T08:39:33.917Z,38.33
2022-08-23T08:42:34.485Z,40.00
2022-08-23T08:45:05.666Z,40.59
2022-08-23T08:47:41.776Z,40.98
2022-08-23T08:50:18.011Z,40.97
2022-08-23T08:52:50.203Z,40.63
2022-08-23T08:55:23.429Z,40.66
2022-08-23T08:57:54.927Z,42.24
2022-08-23T09:00:26.247Z,43.36
2022-08-23T09:02:55.502Z,43.87
2022-08-23T09:05:27.266Z,45.19
2022-08-23T09:08:06.169Z,46.20
2022-08-23T09:11:00.185Z,45.26
2022-08-23T09:13:55.594Z,45.01
2022-08-23T09:16:33.005Z,45.96
2022-08-23T09:19:02.523Z,46.95
2022-08-23T09:21:38.943Z,47.12
2022-08-23T09:24:06.552Z,47.87
2022-08-23T09:26:35.808Z,47.85
2022-08-23T09:29:12.377Z,45.43
2022-08-23T09:31:43.100Z,43.38
2022-08-23T09:34:17.191Z,42.10
2022-08-23T09:36:45.094Z,44.68
2022-08-23T09:39:30.567Z,45.45
2022-08-23T09:42:00.731Z,43.06
2022-08-23T09:44:37.845Z,41.65
2022-08-23T09:47:11.761Z,44.03
2022-08-23T09:49:43.951Z,46.07
2022-08-23T09:52:22.772Z,47.44
2022-08-23T09:55:01.102Z,46.86
2022-08-23T09:57:32.657Z,48.12
2022-08-23T10:00:03.502Z,47.18
2022-08-23T10:02:35.115Z,46.87
2022-08-23T10:05:06.285Z,46.68
2022-08-23T10:07:42.449Z,46.64
2022-08-23T10:10:26.167Z,47.71
2022-08-23T10:12:58.984Z,49.06
2022-08-23T10:15:41.514Z,46.50
2022-08-23T10:18:18.879Z,46.47
2022-08-23T10:20:57.802Z,47.88
2022-08-23T10:23:41.811Z,46.32
2022-08-23T10:26:14.714Z,46.84
2022-08-23T10:29:09.528Z,45.72
2022-08-23T10:31:48.643Z,44.07
2022-08-23T10:34:30.045Z,46.58
2022-08-23T10:37:11.565Z,46.74
2022-08-23T10:39:48.998Z,45.44
2022-08-23T10:42:27.990Z,45.83
2022-08-23T10:45:04.898Z,47.21
2022-08-23T10:47:38.220Z,48.76
2022-08-23T10:50:09.825Z,50.79
2022-08-23T10:52:47.230Z,50.24
2022-08-23T10:55:34.943Z,50.02
2022-08-23T10:58:06.352Z,50.35
2022-08-23T11:00:37.774Z,50.00
2022-08-23T11:03:13.857Z,49.09
2022-08-23T11:05:43.086Z,49.23
2022-08-23T11:08:31.406Z,51.08
2022-08-23T11:10:59.529Z,51.50
2022-08-23T11:13:30.026Z,48.79
2022-08-23T11:16:01.878Z,49.76
2022-08-23T11:18:40.595Z,50.54
2022-08-23T11:21:30.669Z,51.73
2022-08-23T11:24:30.786Z,50.47
2022-08-23T11:27:06.964Z,46.89
2022-08-23T11:29:40.486Z,48.37
2022-08-23T11:32:33.210Z,50.06
2022-08-23T11:35:36.819Z,50.64
2022-08-23T11:38:07.403Z,49.68
2022-08-23T11:40:42.743Z,48.59
2022-08-23T11:43:21.652Z,48.64
2022-08-23T11:45:49.828Z,49.49
2022-08-23T11:48:25.974Z,51.28
2022-08-23T11:51:07.494Z,49.30
2022-08-23T11:53:56.109Z,50.73
2022-08-23T11:56:46.406Z,49.48
2022-08-23T11:59:30.126Z,47.38
2022-08-23T12:01:59.451Z,47.56
2022-08-23T12:04:38.946Z,48.44
2022-08-23T12:07:13.052Z,45.73
2022-08-23T12:09:57.875Z,45.94
2022-08-23T12:12:40.069Z,45.60
2022-08-23T12:15:12.071Z,45.22
2022-08-23T12:18:08.106Z,47.53
2022-08-23T12:20:38.467Z,48.42
2022-08-23T12:23:16.627Z,47.55
2022-08-23T12:25:44.946Z,48.25
2022-08-23T12:28:31.464Z,48.44
2022-08-23T12:31:11.509Z,48.10
2022-08-23T12:33:52.785Z,47.80
2022-08-23T12:36:31.086Z,48.47
2022-08-23T12:39:03.806Z,47.69
2022-08-23T12:41:36.708Z,47.37
2022-08-23T12:44:08.838Z,49.24
2022-08-23T12:46:39.712Z,48.38
2022-08-23T12:49:09.054Z,50.02
2022-08-23T12:51:49.536Z,49.69
2022-08-23T12:54:20.565Z,49.49
2022-08-23T12:56:50.194Z,48.73
2022-08-23T12:59:44.806Z,49.55
2022-08-23T13:02:19.443Z,48.53
2022-08-23T13:04:47.728Z,47.21
2022-08-23T13:07:23.124Z,46.45
2022-08-23T13:09:53.986Z,41.55
2022-08-23T13:12:24.106Z,42.07
2022-08-23T13:14:54.468Z,42.01
2022-08-23T13:17:32.976Z,42.33
2022-08-23T13:20:18.590Z,42.39
2022-08-23T13:23:01.227Z,42.46
2022-08-23T13:25:32.814Z,44.81
2022-08-23T13:28:03.414Z,45.74
2022-08-23T13:30:33.729Z,44.52
2022-08-23T13:33:25.449Z,46.90
2022-08-23T13:36:13.374Z,43.70
2022-08-23T13:38:44.360Z,44.18
2022-08-23T13:41:27.478Z,43.67
2022-08-23T13:43:55.997Z,44.48
2022-08-23T13:46:26.594Z,44.47
2022-08-23T13:49:01.419Z,44.68
2022-08-23T13:51:31.518Z,45.79
2022-08-23T13:54:03.442Z,44.06
2022-08-23T13:56:35.239Z,44.46
2022-08-23T13:59:06.151Z,44.10
2022-08-23T14:01:34.093Z,44.25
2022-08-23T14:04:03.235Z,45.40
2022-08-23T14:06:31.384Z,45.76
2022-08-23T14:09:00.406Z,43.22
2022-08-23T14:11:28.308Z,44.94
2022-08-23T14:13:56.134Z,45.11
2022-08-23T14:16:35.259Z,42.30
2022-08-23T14:19:17.981Z,39.81
2022-08-23T14:21:56.189Z,42.01
2022-08-23T14:24:26.956Z,41.55
2022-08-23T14:26:55.878Z,39.57
2022-08-23T14:29:24.783Z,39.16
2022-08-23T14:31:53.095Z,41.22
2022-08-23T14:34:21.399Z,40.50
2022-08-23T14:39:40.686Z,41.44
2022-08-23T14:42:09.338Z,41.14
2022-08-23T14:44:37.251Z,38.87
2022-08-23T14:47:05.964Z,38.56
2022-08-23T14:49:36.987Z,38.90
2022-08-23T14:52:04.991Z,38.94
2022-08-23T14:54:33.895Z,38.10
2022-08-23T14:57:03.105Z,37.93
2022-08-23T14:59:30.915Z,37.40
2022-08-23T15:01:59.134Z,36.41
2022-08-23T15:04:34.430Z,35.92
2022-08-23T15:07:19.308Z,35.54
2022-08-23T15:09:47.789Z,35.37
2022-08-23T15:15:06.589Z,33.88
2022-08-23T15:17:37.936Z,33.82
2022-08-23T15:20:07.009Z,33.89
2022-08-23T15:22:39.975Z,34.05
2022-08-23T15:25:13.954Z,34.03
2022-08-23T15:27:44.641Z,33.70
2022-08-23T15:30:14.450Z,33.21
2022-08-23T15:32:44.378Z,32.89
2022-08-23T15:35:20.813Z,32.50
2022-08-23T15:37:49.621Z,32.36
2022-08-23T15:40:17.855Z,32.42
2022-08-23T15:42:47.319Z,32.38
2022-08-23T15:45:15.232Z,32.32
2022-08-23T15:47:49.035Z,32.27
2022-08-23T15:50:20.354Z,32.32
2022-08-23T15:52:48.262Z,31.75
2022-08-23T15:55:16.562Z,31.44
2022-08-23T15:57:49.093Z,31.53
2022-08-23T16:00:19.793Z,31.41
2022-08-23T16:03:17.232Z,31.52
2022-08-23T16:05:37.515Z,31.60
2022-08-23T16:08:07.337Z,31.51
2022-08-23T16:10:35.642Z,31.33
2022-08-23T16:13:04.737Z,31.21
2022-08-23T16:15:32.473Z,31.22
2022-08-23T16:18:00.355Z,31.09
2022-08-23T16:20:28.078Z,30.85
2022-08-23T16:22:55.995Z,30.79
2022-08-23T16:25:24.192Z,30.79
2022-08-23T16:27:51.906Z,30.84
2022-08-23T16:30:21.121Z,30.61
2022-08-23T16:32:48.803Z,30.55
2022-08-23T16:35:17.834Z,30.59
2022-08-23T16:37:45.554Z,30.59
2022-08-23T16:40:14.583Z,30.50
2022-08-23T16:42:42.567Z,30.42
2022-08-23T16:45:11.478Z,30.28
2022-08-23T16:47:43.413Z,30.13
2022-08-23T16:50:13.521Z,30.14
2022-08-23T16:52:41.350Z,30.01
2022-08-23T16:55:12.429Z,29.96
2022-08-23T16:57:40.853Z,29.89
2022-08-23T17:00:11.848Z,29.93
2022-08-23T17:02:41.441Z,29.86
2022-08-23T17:05:12.484Z,29.79
2022-08-23T17:07:40.376Z,29.76
2022-08-23T17:10:10.207Z,29.70
2022-08-23T17:12:40.897Z,29.62
2022-08-23T17:15:10.821Z,29.54
2022-08-23T17:17:39.921Z,29.41
2022-08-23T17:20:08.636Z,29.37
2022-08-23T17:22:36.347Z,29.23
2022-08-23T17:25:05.056Z,29.20
2022-08-23T17:27:33.266Z,29.18
2022-08-23T17:30:01.282Z,29.08
2022-08-23T17:32:29.563Z,29.06
2022-08-23T17:34:58.696Z,28.89
2022-08-23T17:37:27.105Z,28.78
2022-08-23T17:39:54.815Z,28.71
2022-08-23T17:42:22.728Z,28.70
2022-08-23T17:44:50.444Z,28.56
2022-08-23T17:47:19.353Z,28.47
2022-08-23T17:49:49.862Z,28.35
2022-08-23T17:52:19.372Z,28.30
2022-08-23T17:54:46.993Z,28.16
2022-08-23T17:57:14.995Z,28.05
2022-08-23T17:59:43.709Z,27.95
2022-08-23T18:02:11.516Z,27.97
2022-08-23T18:04:39.320Z,27.78
2022-08-23T18:07:07.441Z,27.71
2022-08-23T18:09:41.246Z,27.62
2022-08-23T18:12:16.083Z,27.59
2022-08-23T18:14:43.871Z,27.49
2022-08-23T18:17:11.584Z,27.35
2022-08-23T18:19:39.312Z,27.36
2022-08-23T18:22:07.003Z,27.20
2022-08-23T18:24:36.219Z,27.05
2022-08-23T18:27:21.719Z,26.97
2022-08-23T18:29:51.511Z,26.77
2022-08-23T18:32:20.558Z,26.58
2022-08-23T18:34:48.363Z,26.46
2022-08-23T18:37:17.264Z,26.32
2022-08-23T18:39:46.314Z,26.23
2022-08-23T18:42:14.594Z,26.15
2022-08-23T18:44:42.446Z,26.03
2022-08-23T18:47:10.253Z,25.87
2022-08-23T18:49:38.629Z,25.76
2022-08-23T18:52:07.442Z,25.74
2022-08-23T18:54:35.551Z,25.82
2022-08-23T18:57:05.055Z,25.69
2022-08-23T18:59:32.967Z,25.59
2022-08-23T19:02:01.015Z,25.55
2022-08-23T19:04:30.097Z,25.49
2022-08-23T19:06:58.310Z,25.41
2022-08-23T19:09:26.112Z,25.30
2022-08-23T19:11:53.921Z,25.23
2022-08-23T19:14:23.044Z,25.23
2022-08-23T19:16:50.980Z,25.16
2022-08-23T19:19:19.439Z,25.02
2022-08-23T19:21:47.173Z,24.99
2022-08-23T19:24:14.976Z,24.85
2022-08-23T19:26:47.313Z,24.77
2022-08-23T19:29:15.952Z,24.68
2022-08-23T19:31:47.918Z,24.65
2022-08-23T19:34:16.738Z,24.59
2022-08-23T19:36:48.326Z,24.58
2022-08-23T19:39:18.967Z,24.55
2022-08-23T19:41:48.432Z,24.50
2022-08-23T19:44:17.677Z,24.49
2022-08-23T19:46:46.980Z,24.49
2022-08-23T19:49:15.251Z,24.58
2022-08-23T19:51:43.773Z,24.67
2022-08-23T19:54:12.645Z,24.68
2022-08-23T19:56:43.233Z,24.62
2022-08-23T19:59:15.179Z,24.58
2022-08-23T20:01:43.501Z,24.57
2022-08-23T20:04:12.850Z,24.60
2022-08-23T20:06:41.467Z,24.55
2022-08-23T20:09:09.672Z,24.52
2022-08-23T20:11:37.387Z,24.44
2022-08-23T20:14:05.915Z,24.32
2022-08-23T20:16:33.998Z,24.27
2022-08-23T20:19:02.047Z,24.19
2022-08-23T20:21:31.130Z,24.11
2022-08-23T20:24:04.322Z,24.09
2022-08-23T20:26:34.750Z,24.01
2022-08-23T20:29:03.143Z,24.02
2022-08-23T20:31:33.198Z,24.00
2022-08-23T20:34:01.258Z,23.99
2022-08-23T20:36:29.292Z,24.02
2022-08-23T20:39:00.021Z,24.07
2022-08-23T20:41:28.795Z,23.98
2022-08-23T20:43:56.653Z,23.86
2022-08-23T20:46:24.968Z,23.90
2022-08-23T20:48:53.460Z,23.94
2022-08-23T20:51:22.265Z,23.91
2022-08-23T20:53:50.570Z,23.90
2022-08-23T20:56:20.689Z,23.78
2022-08-23T20:58:48.423Z,23.69
2022-08-23T21:01:17.158Z,23.63
2022-08-23T21:03:45.547Z,23.61
2022-08-23T21:06:20.152Z,23.63
2022-08-23T21:08:50.367Z,23.67
2022-08-23T21:11:23.748Z,23.64
2022-08-23T21:13:58.633Z,23.65
2022-08-23T21:16:27.233Z,23.62
2022-08-23T21:18:56.814Z,23.60
2022-08-23T21:21:25.301Z,23.62
2022-08-23T21:23:53.662Z,23.54
2022-08-23T21:26:23.417Z,23.47
2022-08-23T21:28:51.926Z,23.42
2022-08-23T21:31:22.402Z,23.41
2022-08-23T21:33:50.450Z,23.42
2022-08-23T21:36:19.088Z,23.39
2022-08-23T21:38:47.273Z,23.38
2022-08-23T21:41:34.594Z,23.30
2022-08-23T21:44:03.959Z,23.26
2022-08-23T21:46:31.773Z,23.20
2022-08-23T21:49:00.317Z,23.14
2022-08-23T21:51:28.230Z,23.05
2022-08-23T21:53:56.335Z,23.06
2022-08-23T21:56:24.150Z,22.97
2022-08-23T21:58:59.160Z,22.87
2022-08-23T22:01:27.016Z,22.79
2022-08-23T22:03:57.036Z,22.68
2022-08-23T22:06:25.590Z,22.62
2022-08-23T22:08:53.317Z,22.52
2022-08-23T22:11:22.626Z,22.46
2022-08-23T22:13:51.530Z,22.37
2022-08-23T22:16:21.074Z,22.30
2022-08-23T22:18:49.246Z,22.23
2022-08-23T22:21:16.957Z,22.15
2022-08-23T22:23:44.862Z,22.14
2022-08-23T22:26:14.187Z,22.18
2022-08-23T22:28:44.590Z,22.20
2022-08-23T22:31:14.491Z,22.10
2022-08-23T22:33:45.134Z,22.04
2022-08-23T22:36:16.446Z,22.01
2022-08-23T22:38:44.467Z,22.04
2022-08-23T22:41:15.553Z,21.99
2022-08-23T22:43:43.354Z,21.98
2022-08-23T22:46:11.780Z,21.95
2022-08-23T22:48:45.978Z,21.93
2022-08-23T22:51:15.106Z,21.93
2022-08-23T22:53:44.804Z,21.90
2022-08-23T22:56:14.321Z,21.95
2022-08-23T22:58:42.023Z,21.88
2022-08-23T23:01:13.224Z,21.92
2022-08-23T23:03:41.645Z,21.75
2022-08-23T23:06:11.830Z,21.80
2022-08-23T23:08:39.676Z,21.89
2022-08-23T23:11:10.091Z,21.80
2022-08-23T23:13:38.838Z,21.78
2022-08-23T23:16:09.224Z,21.72
2022-08-23T23:18:37.316Z,21.68
2022-08-23T23:21:05.118Z,21.64
2022-08-23T23:23:34.845Z,21.61
2022-08-23T23:26:03.649Z,21.57
2022-08-23T23:28:32.102Z,21.50
2022-08-23T23:30:59.822Z,21.48
2022-08-23T23:33:27.976Z,21.37
2022-08-23T23:35:56.991Z,21.24
2022-08-23T23:38:24.901Z,21.33
2022-08-23T23:40:54.023Z,21.22
2022-08-23T23:43:21.717Z,21.24
2022-08-23T23:45:49.307Z,21.17
2022-08-23T23:48:24.939Z,21.13
2022-08-23T23:50:52.662Z,21.09
2022-08-23T23:53:20.266Z,21.07
2022-08-23T23:55:48.707Z,21.00
2022-08-23T23:58:18.083Z,20.91
